Payneville, Kentucky
Current Conditions -  °F | °C
As of 8:58 PM on Monday 24 Nov 2014 (Local Time) from KFTK Reporting Station
Scattered Clouds Scattered Clouds  
Wind Chill: 39°   Ceiling: Unl
Heat Index: 43°   Visibility: 10mi
Dew Point: 32°   Wind: 7mph
Humidity: 65%   Direction: 220°SW
Pressure: 29.92"   Gusts: NA
Location:  37.99°N, 86.31°W
Report Text: KFTK 250158Z AUTO 22006KT 10SM SCT060 06/00 A2992 RMK AO2 SLP135 T00620001
Loading
Personal Weather Stations






























Interactive Weather Map New forecast layout! Learn more

10-Day Weather Forecast

Advertisements
Track Severe Weather on mobile